Shapleigh, Maine
Current Conditions -  °F | °C
As of 9:15 AM on Friday 24 Oct 2014 (Local Time) from KSFM Reporting Station
Overcast Overcast  
Wind Chill: 41°   Ceiling: 900
Heat Index: 46°   Visibility: 4mi
Dew Point: 43°   Wind: 10mph
Humidity: 87%   Direction: 360°N
Pressure: 29.71"   Gusts: NA
Location:  43.54°N, 70.85°W
Report Text: KSFM 241315Z AUTO 36009KT 4SM BKN009 OVC016 08/06 A2971 RMK AO1 P0001
Loading
Personal Weather Stations






























Interactive Weather Map New forecast layout! Learn more

10-Day Weather Forecast

Advertisements
Track Severe Weather on mobile